TAF and METAR

Could not understand the following METAR

YNWN 171900Z AUTO 22007KT 9999 // NCD 28/15 Q1008
No TAF available for Newman Airport